Time;durP1;ratioP1;P1;durP2;ratioP2;P2;SDS_P1;SDS_P2;PMS_P1;PMS_P2;Temp;Humidity;BMP_temperature;BMP_pressure;BME280_temperature;BME280_humidity;BME280_pressure;Samples;Min_cycle;Max_cycle;Signal;HPM_P1;HPM_P2
2023/10/03 00:01:22;;;;;;;28.23;13.90;;;;;;;18.06;100.00;100993.34;5050206;28;20102;-73
2023/10/03 00:03:49;;;;;;;29.58;13.70;;;;;;;18.05;100.00;100982.78;5032509;28;20128;-72
2023/10/03 00:06:15;;;;;;;30.08;13.30;;;;;;;18.08;100.00;100985.03;5050269;28;20043;-73
2023/10/03 00:08:44;;;;;;;31.55;13.13;;;;;;;18.06;100.00;100977.16;5050222;28;20387;-73
2023/10/03 00:11:19;;;;;;;31.70;12.63;;;;;;;18.12;100.00;100978.06;5049844;28;20043;-73
2023/10/03 00:13:45;;;;;;;30.23;12.75;;;;;;;18.10;100.00;100970.22;5049988;28;20039;-73
2023/10/03 00:16:11;;;;;;;29.75;12.93;;;;;;;18.11;100.00;100961.06;5049989;28;20033;-73
2023/10/03 00:18:36;;;;;;;30.00;12.98;;;;;;;18.04;100.00;100940.69;5050111;28;20047;-73
2023/10/03 00:21:02;;;;;;;29.95;13.13;;;;;;;18.13;100.00;100963.50;5049966;28;20483;-72
2023/10/03 00:23:27;;;;;;;29.50;13.35;;;;;;;18.14;100.00;100968.66;5049928;28;20376;-72
2023/10/03 00:25:54;;;;;;;29.98;12.05;;;;;;;18.14;100.00;100959.75;5050114;28;20070;-73
2023/10/03 00:28:20;;;;;;;34.13;14.32;;;;;;;18.14;100.00;100960.56;5049797;28;20408;-72
2023/10/03 00:30:46;;;;;;;29.85;13.35;;;;;;;18.12;100.00;100951.06;5049760;28;20021;-73
2023/10/03 00:33:12;;;;;;;29.35;13.55;;;;;;;18.12;100.00;100949.19;5049778;28;20021;-73
2023/10/03 00:35:40;;;;;;;30.83;13.35;;;;;;;18.12;100.00;100954.59;5049764;28;20112;-73
2023/10/03 00:38:13;;;;;;;36.40;14.48;;;;;;;18.05;100.00;100945.84;5049940;28;20029;-73
2023/10/03 00:40:40;;;;;;;36.50;15.18;;;;;;;18.05;100.00;100945.00;5032964;28;20063;-73
2023/10/03 00:43:07;;;;;;;32.33;12.60;;;;;;;18.00;100.00;100936.81;5049486;28;20059;-73
2023/10/03 00:45:33;;;;;;;29.25;13.40;;;;;;;18.05;100.00;100935.06;5049527;28;20476;-73
2023/10/03 00:48:07;;;;;;;27.15;12.27;;;;;;;18.04;100.00;100924.47;5049899;28;20028;-73
2023/10/03 00:50:34;;;;;;;33.55;12.55;;;;;;;17.99;100.00;100925.22;5049683;28;20024;-73
2023/10/03 00:53:04;;;;;;;31.85;15.00;;;;;;;18.00;100.00;100915.22;5049597;28;20082;-73
2023/10/03 00:55:32;;;;;;;31.55;13.13;;;;;;;17.98;100.00;100904.69;5049391;28;20112;-72
2023/10/03 00:58:07;;;;;;;31.73;14.68;;;;;;;17.92;100.00;100884.91;5049810;28;20384;-72
2023/10/03 01:00:37;;;;;;;31.33;12.90;;;;;;;17.98;100.00;100887.69;5049573;28;20028;-73
2023/10/03 01:03:03;;;;;;;30.52;13.20;;;;;;;17.90;100.00;100868.13;5049481;28;20056;-73
2023/10/03 01:05:28;;;;;;;31.80;13.60;;;;;;;17.90;100.00;100870.84;5049324;28;20083;-72
2023/10/03 01:07:55;;;;;;;31.75;13.80;;;;;;;17.92;100.00;100860.63;5049479;28;20021;-73
2023/10/03 01:10:21;;;;;;;28.80;12.57;;;;;;;17.92;100.00;100857.91;5049455;28;20106;-73
2023/10/03 01:12:48;;;;;;;28.90;13.40;;;;;;;17.78;100.00;100832.28;5049356;28;20487;-73
2023/10/03 01:15:18;;;;;;;29.35;14.20;;;;;;;17.85;100.00;100832.97;5049281;28;20098;-73
2023/10/03 01:17:48;;;;;;;28.50;11.68;;;;;;;17.90;100.00;100848.44;5049054;28;20033;-72
2023/10/03 01:20:24;;;;;;;34.67;15.88;;;;;;;17.90;100.00;100843.84;5049365;28;20119;-73
2023/10/03 01:22:52;;;;;;;31.48;14.15;;;;;;;17.90;100.00;100832.25;5049264;28;20056;-73
2023/10/03 01:25:18;;;;;;;29.15;13.60;;;;;;;17.90;100.00;100829.53;5049214;28;20035;-73
2023/10/03 01:27:44;;;;;;;32.35;12.45;;;;;;;17.87;100.00;100827.34;5049126;28;20053;-73
2023/10/03 01:30:12;;;;;;;30.08;12.55;;;;;;;17.90;100.00;100816.06;5049090;28;20120;-73
2023/10/03 01:32:43;;;;;;;31.92;12.93;;;;;;;17.87;100.00;100821.94;5049363;28;20029;-72
2023/10/03 01:35:11;;;;;;;30.87;13.10;;;;;;;17.86;100.00;100810.31;5049196;28;20025;-73
2023/10/03 01:37:38;;;;;;;30.00;12.52;;;;;;;17.90;100.00;100813.34;5049106;28;20112;-73
2023/10/03 01:40:09;;;;;;;28.92;11.63;;;;;;;17.91;100.00;100818.50;5049377;28;20383;-72
2023/10/03 01:42:35;;;;;;;31.92;13.13;;;;;;;17.92;100.00;100808.50;5049089;28;20103;-73
2023/10/03 01:45:00;;;;;;;31.17;12.85;;;;;;;17.87;100.00;100806.56;5048999;28;20111;-72
2023/10/03 01:47:25;;;;;;;29.55;14.05;;;;;;;17.91;100.00;100804.19;5016194;28;20052;-73
2023/10/03 01:49:51;;;;;;;29.65;13.15;;;;;;;17.84;100.00;100793.56;5052845;28;20048;-73
2023/10/03 01:52:17;;;;;;;31.02;13.77;;;;;;;17.90;100.00;100787.19;5052970;28;20495;-73
2023/10/03 01:54:43;;;;;;;27.30;12.57;;;;;;;17.89;100.00;100785.56;5052818;28;20072;-72
2023/10/03 01:57:08;;;;;;;28.35;12.40;;;;;;;17.89;100.00;100788.25;5052391;28;20032;-73
2023/10/03 01:59:34;;;;;;;32.08;12.63;;;;;;;17.88;100.00;100794.69;5052838;28;20056;-73
2023/10/03 02:02:00;;;;;;;29.85;11.73;;;;;;;17.90;100.00;100800.69;5052894;28;20048;-73
2023/10/03 02:04:28;;;;;;;26.80;12.13;;;;;;;17.90;100.00;100795.28;5052627;28;20029;-73
2023/10/03 02:06:54;;;;;;;24.77;10.38;;;;;;;17.92;100.00;100805.81;5052393;28;20145;-72
2023/10/03 02:09:21;;;;;;;28.10;13.00;;;;;;;17.87;100.00;100795.78;5052460;28;20479;-73
2023/10/03 02:11:46;;;;;;;28.42;12.10;;;;;;;17.85;100.00;100783.59;5052409;28;20021;-72
2023/10/03 02:14:11;;;;;;;27.65;10.60;;;;;;;17.85;100.00;100770.91;5052540;28;20033;-72
2023/10/03 02:16:43;;;;;;;25.50;11.70;;;;;;;17.93;100.00;100781.28;5052480;28;20032;-72
2023/10/03 02:19:09;;;;;;;26.60;12.02;;;;;;;17.93;100.00;100775.91;5052327;28;20036;-73
2023/10/03 02:21:35;;;;;;;27.13;11.35;;;;;;;17.97;100.00;100778.91;5071463;28;20506;-73
2023/10/03 02:24:00;;;;;;;28.88;11.13;;;;;;;17.98;100.00;100768.94;5071480;28;20032;-72
2023/10/03 02:26:28;;;;;;;27.83;10.80;;;;;;;18.00;100.00;100762.25;5071282;28;20394;-72
2023/10/03 02:28:54;;;;;;;27.25;11.02;;;;;;;18.04;100.00;100770.66;5070907;28;20072;-73
2023/10/03 02:31:20;;;;;;;27.05;11.73;;;;;;;18.06;100.00;100765.81;5071243;28;20064;-73
2023/10/03 02:33:46;;;;;;;24.63;9.40;;;;;;;18.09;100.00;100751.81;5071341;28;20074;-72
2023/10/03 02:36:11;;;;;;;26.23;11.38;;;;;;;18.09;100.00;100725.66;5071074;28;20021;-73
2023/10/03 02:38:37;;;;;;;25.98;9.77;;;;;;;18.17;100.00;100752.19;5071123;28;20051;-73
2023/10/03 02:41:07;;;;;;;28.27;12.18;;;;;;;18.20;100.00;100750.88;5052997;28;20078;-72
2023/10/03 02:43:36;;;;;;;24.15;10.65;;;;;;;18.26;100.00;100763.41;5053148;28;20032;-72
2023/10/03 02:46:04;;;;;;;27.75;9.27;;;;;;;18.35;100.00;100763.78;5070971;28;20146;-73
2023/10/03 02:48:30;;;;;;;29.83;10.25;;;;;;;18.41;100.00;100760.06;5070871;28;20029;-72
2023/10/03 02:50:55;;;;;;;24.27;9.50;;;;;;;18.51;100.00;100756.69;5053104;28;20031;-73
2023/10/03 02:53:21;;;;;;;26.40;11.07;;;;;;;18.55;100.00;100761.34;5070899;28;20043;-72
2023/10/03 02:55:51;;;;;;;30.40;10.20;;;;;;;18.60;100.00;100766.81;5070904;28;20032;-73
2023/10/03 02:58:19;;;;;;;23.60;9.43;;;;;;;18.64;100.00;100777.91;5050784;28;20116;-72
2023/10/03 03:00:46;;;;;;;26.10;10.68;;;;;;;18.68;100.00;100773.66;5050868;28;20163;-73
2023/10/03 03:03:14;;;;;;;24.77;8.93;;;;;;;18.74;100.00;100772.63;5051375;28;20057;-72
2023/10/03 03:05:41;;;;;;;23.80;8.38;;;;;;;18.81;100.00;100783.25;5051424;28;20024;-72
2023/10/03 03:10:42;;;;;;;23.02;8.98;;;;;;;18.98;100.00;100784.00;5051364;28;20352;-73
2023/10/03 03:13:13;;;;;;;23.75;8.55;;;;;;;19.11;100.00;100787.38;5051002;28;20036;-72
2023/10/03 03:15:43;;;;;;;22.53;8.80;;;;;;;19.15;100.00;100785.78;5051526;28;20025;-72
2023/10/03 03:18:08;;;;;;;24.10;9.07;;;;;;;19.17;100.00;100779.03;5051198;28;20291;-73
2023/10/03 03:20:37;;;;;;;22.73;7.85;;;;;;;19.15;100.00;100783.91;5051056;28;20388;-72
2023/10/03 03:23:03;;;;;;;25.70;9.70;;;;;;;19.13;100.00;100777.94;5051248;28;20522;-72
2023/10/03 03:25:42;;;;;;;20.30;7.80;;;;;;;19.07;100.00;100770.84;5051228;28;20484;-73
2023/10/03 03:28:15;;;;;;;23.80;9.52;;;;;;;19.10;100.00;100773.06;5050877;28;20144;-73
2023/10/03 03:30:54;;;;;;;24.38;9.02;;;;;;;19.09;100.00;100767.88;5050803;28;20110;-73
2023/10/03 03:33:20;;;;;;;23.13;8.52;;;;;;;19.08;100.00;100777.06;5050848;28;20029;-72
2023/10/03 03:35:48;;;;;;;21.58;6.90;;;;;;;19.10;100.00;100773.06;5051027;28;20025;-72
2023/10/03 03:38:15;;;;;;;24.88;9.60;;;;;;;19.11;100.00;100766.56;5050735;28;20071;-72
2023/10/03 03:40:45;;;;;;;23.15;7.43;;;;;;;19.13;100.00;100767.13;5032926;28;20591;-73
2023/10/03 03:43:16;;;;;;;22.35;8.40;;;;;;;19.12;100.00;100759.25;5050392;28;20392;-73
2023/10/03 03:45:45;;;;;;;23.50;8.68;;;;;;;19.08;100.00;100763.56;5050721;28;20029;-73
2023/10/03 03:48:11;;;;;;;21.00;7.65;;;;;;;19.05;100.00;100762.19;5050448;28;20125;-72
2023/10/03 03:50:37;;;;;;;20.13;8.20;;;;;;;19.04;100.00;100771.34;5069811;28;20108;-72
2023/10/03 03:53:03;;;;;;;23.52;8.73;;;;;;;19.04;100.00;100772.16;5069448;28;20063;-72
2023/10/03 03:55:31;;;;;;;21.85;8.55;;;;;;;19.04;100.00;100774.06;5069766;28;20036;-72
2023/10/03 03:57:59;;;;;;;21.67;8.82;;;;;;;19.07;100.00;100775.44;5069675;28;20839;-72
2023/10/03 04:00:28;;;;;;;23.77;8.55;;;;;;;18.97;100.00;100757.25;5069416;28;20056;-72
2023/10/03 04:02:57;;;;;;;21.55;8.38;;;;;;;19.05;100.00;100767.59;5069387;28;20025;-72
2023/10/03 04:05:26;;;;;;;26.45;9.35;;;;;;;19.03;100.00;100778.66;5069592;28;20036;-72
2023/10/03 04:07:53;;;;;;;21.48;8.45;;;;;;;19.05;100.00;100783.81;5069273;28;20040;-72
2023/10/03 04:10:18;;;;;;;21.30;8.55;;;;;;;19.05;100.00;100786.50;5051234;28;20033;-72
2023/10/03 04:12:44;;;;;;;20.35;8.27;;;;;;;19.02;100.00;100790.53;5069014;28;20028;-72
2023/10/03 04:15:12;;;;;;;21.38;8.15;;;;;;;19.02;100.00;100790.53;5069213;28;20028;-72
2023/10/03 04:17:38;;;;;;;20.52;7.18;;;;;;;19.05;100.00;100783.81;5051478;28;20079;-72
2023/10/03 04:20:25;;;;;;;17.08;6.60;;;;;;;19.10;100.00;100802.78;5069098;28;20039;-72
2023/10/03 04:22:53;;;;;;;21.00;10.00;;;;;;;19.09;100.00;100809.25;5069035;28;20472;-72
2023/10/03 04:25:23;;;;;;;20.10;7.70;;;;;;;19.05;100.00;100810.84;5069001;28;20029;-72
2023/10/03 04:27:49;;;;;;;22.75;8.27;;;;;;;19.08;100.00;100814.94;5068818;28;20423;-73
2023/10/03 04:30:16;;;;;;;19.05;6.85;;;;;;;19.07;100.00;100814.09;5068923;28;20028;-73
2023/10/03 04:32:42;;;;;;;18.98;7.22;;;;;;;19.06;100.00;100815.16;5068557;28;20032;-73
2023/10/03 04:35:12;;;;;;;19.92;7.20;;;;;;;19.08;100.00;100809.53;5069008;28;20029;-73
2023/10/03 04:37:39;;;;;;;18.02;6.25;;;;;;;19.12;100.00;100827.66;5051193;28;21061;-72
2023/10/03 04:40:06;;;;;;;21.48;8.23;;;;;;;19.12;100.00;100827.66;5068718;28;20031;-72
2023/10/03 04:42:32;;;;;;;16.33;7.45;;;;;;;19.10;100.00;100816.31;5050682;28;20028;-73
2023/10/03 04:44:58;;;;;;;18.30;6.90;;;;;;;19.11;100.00;100817.94;5068460;28;20032;-73
2023/10/03 04:47:26;;;;;;;18.23;6.85;;;;;;;19.08;100.00;100814.94;5068627;28;20038;-73
2023/10/03 04:49:52;;;;;;;16.33;6.18;;;;;;;19.09;100.00;100827.34;5068780;28;20032;-72
2023/10/03 04:52:17;;;;;;;16.13;7.70;;;;;;;19.10;100.00;100828.97;5068533;28;20024;-72
2023/10/03 04:54:42;;;;;;;13.48;5.70;;;;;;;19.09;100.00;100838.97;5068896;28;20074;-73
2023/10/03 04:57:08;;;;;;;14.05;5.28;;;;;;;19.09;100.00;100849.00;5068153;28;20394;-72
2023/10/03 04:59:33;;;;;;;14.88;5.43;;;;;;;19.08;100.00;100852.78;5068346;28;20398;-72
2023/10/03 05:02:01;;;;;;;13.57;4.13;;;;;;;19.02;100.00;100850.00;5055446;28;20348;-72
2023/10/03 05:04:26;;;;;;;14.30;4.72;;;;;;;18.96;100.00;100853.69;5049290;28;20041;-72
2023/10/03 05:06:52;;;;;;;14.43;5.78;;;;;;;18.88;100.00;100853.34;5049021;28;20033;-72
2023/10/03 05:09:17;;;;;;;13.82;4.40;;;;;;;18.83;100.00;100860.31;5049353;28;20078;-72
2023/10/03 05:11:43;;;;;;;19.58;4.57;;;;;;;18.77;100.00;100845.09;5049271;28;20047;-72
2023/10/03 05:14:09;;;;;;;11.40;4.93;;;;;;;18.75;100.00;100844.53;5049098;28;20116;-72
2023/10/03 05:16:35;;;;;;;7.70;4.32;;;;;;;18.69;100.00;100874.44;5049020;28;20499;-72
2023/10/03 05:19:00;;;;;;;16.30;5.63;;;;;;;18.67;100.00;100879.25;5031101;28;20042;-72
2023/10/03 05:21:25;;;;;;;19.92;5.13;;;;;;;18.64;100.00;100894.06;5048951;28;20054;-72
2023/10/03 05:23:52;;;;;;;11.23;4.68;;;;;;;18.63;100.00;100903.25;5035161;28;20044;-72
2023/10/03 05:26:19;;;;;;;10.93;5.32;;;;;;;18.60;100.00;100918.09;5072304;28;20040;-73
2023/10/03 05:28:45;;;;;;;16.52;6.03;;;;;;;18.55;100.00;100917.19;5072201;28;20044;-72
2023/10/03 05:31:14;;;;;;;12.55;6.50;;;;;;;18.53;100.00;100895.81;5071899;28;20047;-72
2023/10/03 05:33:41;;;;;;;12.35;5.25;;;;;;;18.54;100.00;100880.44;5072080;28;20382;-72
2023/10/03 05:36:07;;;;;;;16.80;6.30;;;;;;;18.51;100.00;100876.34;5072137;28;20399;-72
2023/10/03 05:38:33;;;;;;;12.18;4.63;;;;;;;18.47;100.00;100869.81;5072198;28;20036;-72
2023/10/03 05:40:58;;;;;;;11.32;5.50;;;;;;;18.43;100.00;100874.06;5071968;28;20063;-73
2023/10/03 05:43:24;;;;;;;12.45;5.35;;;;;;;18.40;100.00;100879.97;5071810;28;20036;-72
2023/10/03 05:45:50;;;;;;;15.75;6.82;;;;;;;18.37;100.00;100870.47;5054036;28;20064;-72
2023/10/03 05:48:17;;;;;;;21.30;5.55;;;;;;;18.37;100.00;100878.59;5071860;28;20491;-72
2023/10/03 05:50:42;;;;;;;13.82;6.15;;;;;;;18.27;100.00;100886.53;5071527;28;20055;-72
2023/10/03 05:53:08;;;;;;;11.50;4.78;;;;;;;18.36;100.00;100898.53;5071716;28;20028;-72
2023/10/03 05:55:34;;;;;;;10.68;5.07;;;;;;;18.33;100.00;100890.13;5053649;28;20029;-72
2023/10/03 05:58:00;;;;;;;13.82;5.38;;;;;;;18.35;100.00;100893.38;5071913;28;20047;-73
2023/10/03 06:00:25;;;;;;;12.40;5.82;;;;;;;18.36;100.00;100895.81;5062741;28;20123;-72
2023/10/03 06:02:51;;;;;;;12.48;5.72;;;;;;;18.37;100.00;100886.69;5070910;28;20040;-73
2023/10/03 06:05:16;;;;;;;13.02;5.35;;;;;;;18.35;100.00;100885.28;5070455;28;20498;-72
2023/10/03 06:07:42;;;;;;;18.42;6.78;;;;;;;18.36;100.00;100895.81;5070707;28;20029;-72
2023/10/03 06:10:10;;;;;;;11.63;5.30;;;;;;;18.37;100.00;100902.06;5070516;28;20028;-72
2023/10/03 06:12:37;;;;;;;14.38;6.35;;;;;;;18.34;100.00;100897.16;5070564;28;20107;-73
2023/10/03 06:15:04;;;;;;;11.00;6.18;;;;;;;18.36;100.00;100911.22;5070930;28;20028;-73
2023/10/03 06:17:31;;;;;;;10.38;5.53;;;;;;;18.35;100.00;100917.69;5071185;28;20032;-73
2023/10/03 06:19:57;;;;;;;8.93;4.70;;;;;;;18.31;100.00;100903.88;5071234;28;20037;-72
2023/10/03 06:22:22;;;;;;;10.88;5.50;;;;;;;18.33;100.00;100901.72;5053005;28;20047;-72
2023/10/03 06:24:49;;;;;;;9.02;4.88;;;;;;;18.33;100.00;100915.22;5070277;28;20548;-72
2023/10/03 06:27:14;;;;;;;13.02;4.82;;;;;;;18.31;100.00;100908.44;5070233;28;20082;-72
2023/10/03 06:29:40;;;;;;;10.48;5.38;;;;;;;18.31;100.00;100925.47;5070685;28;20032;-72
2023/10/03 06:32:06;;;;;;;13.95;6.32;;;;;;;18.31;100.00;100925.47;5071340;28;20037;-72
2023/10/03 06:34:32;;;;;;;11.95;5.32;;;;;;;18.32;100.00;100931.69;5053430;28;20053;-72
2023/10/03 06:36:58;;;;;;;10.70;5.15;;;;;;;18.29;100.00;100935.69;5051750;28;20108;-73
2023/10/03 06:39:23;;;;;;;8.95;5.18;;;;;;;18.32;100.00;100942.50;5051356;28;20523;-73
2023/10/03 06:41:50;;;;;;;11.05;5.50;;;;;;;18.31;100.00;100933.59;5051069;28;20075;-72
2023/10/03 06:44:15;;;;;;;10.23;4.95;;;;;;;18.24;100.00;100929.41;5050492;28;20487;-73
2023/10/03 06:46:42;;;;;;;13.05;5.10;;;;;;;18.30;100.00;100953.53;5051567;28;20024;-72
2023/10/03 06:49:08;;;;;;;12.07;5.20;;;;;;;18.27;100.00;100951.31;5068866;28;20548;-72
2023/10/03 06:51:33;;;;;;;9.73;4.93;;;;;;;18.22;100.00;100953.13;5070839;28;20036;-72
2023/10/03 06:53:58;;;;;;;16.13;5.70;;;;;;;18.14;100.00;100963.25;5056048;28;20033;-72
2023/10/03 06:56:25;;;;;;;10.00;4.28;;;;;;;18.09;100.00;100965.88;5051202;28;20395;-72
2023/10/03 06:58:50;;;;;;;10.18;5.30;;;;;;;17.97;100.00;100965.09;5051189;28;20414;-72
2023/10/03 07:01:16;;;;;;;11.85;5.43;;;;;;;17.86;100.00;100961.41;5051426;28;20037;-72
2023/10/03 07:03:41;;;;;;;14.32;6.05;;;;;;;17.83;100.00;100980.78;5051325;28;20036;-72
2023/10/03 07:06:07;;;;;;;11.48;6.03;;;;;;;17.81;100.00;100979.41;5050721;28;20083;-72
2023/10/03 07:08:37;;;;;;;15.77;6.35;;;;;;;17.77;100.00;100981.72;5051296;28;20112;-72
2023/10/03 07:11:02;;;;;;;12.27;5.75;;;;;;;17.74;100.00;100971.44;5051250;28;20036;-72
2023/10/03 07:13:27;;;;;;;14.70;7.32;;;;;;;17.72;100.00;100987.84;5050943;28;20090;-72
2023/10/03 07:15:57;;;;;;;15.70;6.88;;;;;;;17.70;100.00;101000.75;5053843;28;20101;-74
2023/10/03 07:18:23;;;;;;;15.05;8.13;;;;;;;17.64;100.00;100971.22;5050510;28;20075;-71
2023/10/03 07:20:48;;;;;;;14.82;7.00;;;;;;;17.63;100.00;100983.91;5034439;28;20025;-76
2023/10/03 07:23:13;;;;;;;14.32;7.07;;;;;;;17.58;100.00;100978.41;5051773;28;20370;-76
2023/10/03 07:25:39;;;;;;;14.60;6.32;;;;;;;17.62;100.00;100973.34;5049972;28;20025;-76
2023/10/03 07:28:05;;;;;;;15.85;8.10;;;;;;;17.60;100.00;100976.28;5031975;28;20052;-74
2023/10/03 07:30:30;;;;;;;14.63;7.75;;;;;;;17.64;100.00;100973.94;5032120;28;20111;-73
2023/10/03 07:32:55;;;;;;;13.88;5.75;;;;;;;17.66;100.00;100980.72;5000552;28;20032;-76
2023/10/03 07:35:22;;;;;;;19.08;8.43;;;;;;;17.67;100.00;100984.22;5032513;28;20035;-72
2023/10/03 07:37:50;;;;;;;17.58;7.00;;;;;;;17.69;100.00;100977.53;5043116;28;20033;-72
2023/10/03 07:40:15;;;;;;;16.67;7.93;;;;;;;17.71;100.00;100971.88;5042317;28;20029;-72
2023/10/03 07:42:42;;;;;;;15.38;6.90;;;;;;;17.75;100.00;100979.25;5043348;28;20029;-76
2023/10/03 07:45:08;;;;;;;13.75;6.93;;;;;;;17.79;100.00;100992.25;5042348;28;20060;-73
2023/10/03 07:47:34;;;;;;;16.27;7.25;;;;;;;17.83;100.00;100991.59;5033580;28;20033;-74
2023/10/03 07:50:00;;;;;;;12.45;7.50;;;;;;;17.88;100.00;100996.25;5042789;28;20041;-74
2023/10/03 07:52:27;;;;;;;15.20;6.47;;;;;;;17.93;100.00;101010.66;5032692;28;20131;-76
2023/10/03 07:54:56;;;;;;;16.95;8.82;;;;;;;17.96;100.00;101020.16;5032418;28;20052;-74
2023/10/03 07:57:25;;;;;;;14.18;6.93;;;;;;;17.97;100.00;101027.19;5041931;28;20151;-74
2023/10/03 07:59:52;;;;;;;13.85;7.35;;;;;;;17.97;100.00;101040.66;5042693;28;20373;-76
2023/10/03 08:02:17;;;;;;;15.48;8.35;;;;;;;17.97;100.00;101035.28;5042875;28;20032;-74
2023/10/03 08:04:46;;;;;;;16.10;8.27;;;;;;;17.94;100.00;101033.06;5042040;28;20037;-77
2023/10/03 08:07:21;;;;;;;13.73;6.78;;;;;;;17.96;100.00;101030.94;5042349;28;20021;-76
2023/10/03 08:09:47;;;;;;;18.30;7.70;;;;;;;17.96;100.00;101028.25;5042031;28;20025;-73
2023/10/03 08:12:13;;;;;;;13.25;6.65;;;;;;;17.98;100.00;101039.63;5042749;28;20036;-74
2023/10/03 08:14:39;;;;;;;13.98;6.78;;;;;;;17.96;100.00;101049.84;5042422;28;20025;-74
2023/10/03 08:17:05;;;;;;;16.33;7.35;;;;;;;17.91;100.00;101055.13;5041734;28;20460;-75
2023/10/03 08:19:30;;;;;;;13.43;6.22;;;;;;;17.88;100.00;101071.81;5041683;28;20047;-74
2023/10/03 08:21:58;;;;;;;12.48;6.72;;;;;;;17.84;100.00;101071.50;5041872;28;20028;-74
2023/10/03 08:24:24;;;;;;;11.80;5.85;;;;;;;17.82;100.00;101062.00;5041981;28;20391;-74
2023/10/03 08:26:51;;;;;;;14.15;6.55;;;;;;;17.80;100.00;101074.91;5041904;28;20858;-73
2023/10/03 08:29:23;;;;;;;11.75;5.70;;;;;;;17.81;100.00;101088.13;5051340;28;20439;-74
2023/10/03 08:31:57;;;;;;;14.75;6.43;;;;;;;17.87;100.00;101086.38;5050759;28;20044;-74
2023/10/03 08:34:27;;;;;;;13.57;6.22;;;;;;;17.92;100.00;101083.75;5051985;28;20025;-73
2023/10/03 08:36:58;;;;;;;12.38;5.70;;;;;;;18.00;100.00;101087.94;5051644;28;20376;-74
2023/10/03 08:39:25;;;;;;;9.40;4.60;;;;;;;18.03;100.00;101095.59;5033899;28;20028;-71
2023/10/03 08:42:15;;;;;;;13.55;5.35;;;;;;;18.14;100.00;101105.53;5034390;28;20022;-74
2023/10/03 08:44:52;;;;;;;10.73;5.07;;;;;;;18.22;100.00;101107.03;5068879;28;20609;-70
2023/10/03 08:47:28;;;;;;;13.75;5.60;;;;;;;18.27;100.00;101113.31;5068719;28;20035;-70
2023/10/03 08:50:29;;;;;;;7.72;4.13;;;;;;;18.31;100.00;101119.91;5068784;28;20036;-70
2023/10/03 08:52:56;;;;;;;7.90;2.83;;;;;;;18.35;100.00;101131.03;5068757;28;20028;-70
2023/10/03 08:55:26;;;;;;;4.72;2.08;;;;;;;18.29;100.00;101132.81;5050456;28;20036;-70
2023/10/03 08:57:52;;;;;;;2.38;1.50;;;;;;;18.32;100.00;101156.63;5049529;28;20063;-70
2023/10/03 09:00:26;;;;;;;1.25;1.15;;;;;;;18.26;100.00;101148.66;5050000;28;20024;-70
2023/10/03 09:03:09;;;;;;;3.33;1.67;;;;;;;18.23;100.00;101146.44;5055183;28;20052;-70
2023/10/03 09:05:39;;;;;;;5.35;1.50;;;;;;;18.19;100.00;101167.72;5048931;28;20583;-70
2023/10/03 09:08:08;;;;;;;2.15;1.00;;;;;;;18.07;100.00;101175.00;5031935;28;20025;-70
2023/10/03 09:10:42;;;;;;;0.90;0.60;;;;;;;17.66;100.00;101182.22;5049462;28;20494;-70
2023/10/03 09:13:15;;;;;;;2.05;0.95;;;;;;;17.32;100.00;101171.19;5049429;28;20036;-70
2023/10/03 09:15:45;;;;;;;0.93;0.70;;;;;;;17.14;100.00;101172.13;5031224;28;20025;-70
2023/10/03 09:18:14;;;;;;;2.05;0.75;;;;;;;17.12;100.00;101195.78;5049138;28;20029;-70
2023/10/03 09:20:42;;;;;;;2.55;1.23;;;;;;;17.06;100.00;101196.72;5049478;28;20017;-71
2023/10/03 09:23:08;;;;;;;1.35;0.88;;;;;;;17.05;100.00;101206.63;5049267;28;20037;-70
2023/10/03 09:25:41;;;;;;;1.88;0.60;;;;;;;16.93;100.00;101192.34;5061125;28;20025;-70
2023/10/03 09:28:08;;;;;;;5.78;0.95;;;;;;;17.07;100.00;101207.25;5062750;28;20072;-70
2023/10/03 09:30:41;;;;;;;4.38;1.02;;;;;;;17.21;100.00;101237.53;5049144;28;20104;-70
2023/10/03 09:33:08;;;;;;;1.77;1.00;;;;;;;17.18;100.00;101231.75;5049267;28;20065;-71
2023/10/03 09:35:35;;;;;;;3.13;0.77;;;;;;;17.18;100.00;101237.97;5049048;28;20029;-70
2023/10/03 09:38:06;;;;;;;3.05;0.88;;;;;;;17.24;100.00;101249.72;5049201;28;20094;-71
2023/10/03 09:40:51;;;;;;;2.25;1.00;;;;;;;17.24;100.00;101263.19;5048902;28;20128;-71
2023/10/03 09:43:27;;;;;;;4.07;1.30;;;;;;;17.28;100.00;101269.75;5049402;28;20044;-71
2023/10/03 09:45:56;;;;;;;6.43;1.90;;;;;;;17.27;100.00;101257.34;5049014;28;20029;-71
2023/10/03 09:48:24;;;;;;;5.20;1.55;;;;;;;17.26;100.00;101261.06;5049203;28;20468;-71
2023/10/03 09:50:53;;;;;;;3.72;0.98;;;;;;;17.29;100.00;101247.13;5048902;28;20067;-71
2023/10/03 09:53:27;;;;;;;2.22;0.88;;;;;;;17.33;100.00;101258.28;5049002;28;20040;-71
2023/10/03 09:55:55;;;;;;;2.83;1.05;;;;;;;17.31;100.00;101258.50;5049023;28;20035;-71
2023/10/03 09:58:24;;;;;;;4.70;1.00;;;;;;;17.28;100.00;101262.47;5048809;28;20065;-71
2023/10/03 10:00:54;;;;;;;5.90;1.73;;;;;;;17.27;100.00;101266.25;5048713;28;20025;-71
2023/10/03 10:03:27;;;;;;;3.20;1.85;;;;;;;17.09;100.00;101264.44;5048720;28;20028;-71
2023/10/03 10:06:37;;;;;;;1.17;1.08;;;;;;;17.18;100.00;101277.56;5048798;28;20067;-71
2023/10/03 10:09:13;;;;;;;3.30;1.73;;;;;;;17.05;100.00;101274.00;5051018;28;20447;-71
2023/10/03 10:12:10;;;;;;;1.55;1.38;;;;;;;17.11;100.00;101283.09;5052248;28;20446;-71
2023/10/03 10:15:21;;;;;;;3.42;2.75;;;;;;;17.05;100.00;101309.06;5052491;28;20388;-71
2023/10/03 10:17:51;;;;;;;5.30;1.80;;;;;;;16.88;100.00;101291.88;5052600;28;20025;-71
2023/10/03 10:20:32;;;;;;;4.90;1.90;;;;;;;16.91;100.00;101304.09;5052107;28;20037;-71
2023/10/03 10:22:58;;;;;;;3.10;1.65;;;;;;;16.90;100.00;101329.38;5052488;28;20025;-71
2023/10/03 10:25:43;;;;;;;3.72;1.23;;;;;;;16.95;100.00;101332.22;5052159;28;20025;-71
2023/10/03 10:28:20;;;;;;;2.92;1.00;;;;;;;17.04;100.00;101342.44;5052999;28;20075;-71
2023/10/03 10:31:16;;;;;;;2.05;0.90;;;;;;;17.12;100.00;101354.78;5070972;28;20065;-70
2023/10/03 10:33:46;;;;;;;4.75;0.68;;;;;;;17.09;100.00;101339.09;5070954;28;20024;-71
2023/10/03 10:36:12;;;;;;;2.30;1.10;;;;;;;17.19;100.00;101360.09;5071328;28;20021;-71
2023/10/03 10:38:49;;;;;;;1.27;0.60;;;;;;;17.17;100.00;101349.53;5052719;28;20490;-71
2023/10/03 10:41:17;;;;;;;2.25;0.65;;;;;;;17.26;100.00;101358.13;5070662;28;20024;-71
2023/10/03 10:44:05;;;;;;;3.03;0.80;;;;;;;17.34;100.00;101373.97;5063690;28;20024;-71
2023/10/03 10:46:35;;;;;;;4.20;0.68;;;;;;;17.33;100.00;101372.34;5051622;28;20102;-71
2023/10/03 10:49:06;;;;;;;1.23;0.57;;;;;;;17.30;100.00;101367.41;5051873;28;20033;-71
2023/10/03 10:51:38;;;;;;;1.50;1.00;;;;;;;17.18;100.00;101382.72;5051264;28;20114;-71
2023/10/03 10:54:04;;;;;;;0.43;0.43;;;;;;;17.08;100.00;101394.03;5051551;28;20039;-71
2023/10/03 10:56:32;;;;;;;5.07;1.25;;;;;;;17.02;100.00;101370.69;5051424;28;20061;-70
2023/10/03 10:59:06;;;;;;;1.95;0.70;;;;;;;17.09;100.00;101387.59;5051539;28;20071;-71
2023/10/03 11:01:38;;;;;;;1.85;0.57;;;;;;;17.05;100.00;101391.78;5052064;28;20056;-71
2023/10/03 11:04:04;;;;;;;1.25;0.55;;;;;;;16.84;100.00;101391.19;5070699;28;20044;-71
2023/10/03 11:06:30;;;;;;;2.47;0.93;;;;;;;16.66;100.00;101391.16;5070855;28;20430;-70
2023/10/03 11:08:55;;;;;;;2.33;0.90;;;;;;;16.61;100.00;101401.78;5070593;28;20024;-70
2023/10/03 11:11:20;;;;;;;3.33;0.93;;;;;;;16.53;100.00;101402.91;5070286;28;20119;-72
2023/10/03 11:13:53;;;;;;;1.33;1.13;;;;;;;16.50;100.00;101408.72;5053135;28;20024;-73
2023/10/03 11:16:23;;;;;;;3.58;0.60;;;;;;;16.54;100.00;101399.16;5053492;28;20036;-73
2023/10/03 11:18:49;;;;;;;2.70;0.73;;;;;;;16.64;100.00;101417.50;5053617;28;20061;-77